createdAt,value
2017-11-08T00:01:27.288Z,20.60
2017-11-08T00:03:55.584Z,18.80
2017-11-08T00:06:23.869Z,18.83
2017-11-08T00:08:52.146Z,20.13
2017-11-08T00:11:20.436Z,19.33
2017-11-08T00:13:49.478Z,20.80
2017-11-08T00:16:17.765Z,15.80
2017-11-08T00:18:46.058Z,20.60
2017-11-08T00:21:14.336Z,14.60
2017-11-08T00:23:42.620Z,20.03
2017-11-08T00:26:10.912Z,19.33
2017-11-08T00:28:39.218Z,17.00
2017-11-08T00:31:07.504Z,22.00
2017-11-08T00:33:35.806Z,18.30
2017-11-08T00:36:04.090Z,20.20
2017-11-08T00:38:32.376Z,21.10
2017-11-08T00:41:00.674Z,20.10
2017-11-08T00:43:29.725Z,17.05
2017-11-08T00:45:58.025Z,20.07
2017-11-08T00:48:26.322Z,17.40
2017-11-08T00:50:54.613Z,17.10
2017-11-08T00:53:22.905Z,17.00
2017-11-08T00:55:51.184Z,20.03
2017-11-08T00:58:19.465Z,19.00
2017-11-08T01:00:47.749Z,17.33
2017-11-08T01:03:16.032Z,22.87
2017-11-08T01:05:44.331Z,23.17
2017-11-08T01:08:12.620Z,20.87
2017-11-08T01:10:40.981Z,20.67
2017-11-08T01:13:09.274Z,21.17
2017-11-08T01:15:37.566Z,18.07
2017-11-08T01:18:05.864Z,20.33
2017-11-08T01:20:34.147Z,18.10
2017-11-08T01:23:02.449Z,23.20
2017-11-08T01:25:30.889Z,20.27
2017-11-08T01:27:59.165Z,20.43
2017-11-08T01:30:27.468Z,20.87
2017-11-08T01:32:55.773Z,26.43
2017-11-08T01:35:24.058Z,22.07
2017-11-08T01:37:55.552Z,23.70
2017-11-08T01:40:23.837Z,24.23
2017-11-08T01:42:52.128Z,21.57
2017-11-08T01:45:20.424Z,26.63
2017-11-08T01:47:48.717Z,31.08
2017-11-08T01:50:17.075Z,34.13
2017-11-08T01:52:45.346Z,28.90
2017-11-08T01:55:13.659Z,23.40
2017-11-08T01:57:41.944Z,27.70
2017-11-08T02:00:11.046Z,28.77
2017-11-08T02:02:39.330Z,27.80
2017-11-08T02:05:07.621Z,26.73
2017-11-08T02:07:35.908Z,27.35
2017-11-08T02:10:04.230Z,21.20
2017-11-08T02:12:32.520Z,32.77
2017-11-08T02:15:01.577Z,28.90
2017-11-08T02:17:29.894Z,24.73
2017-11-08T02:19:58.968Z,22.83
2017-11-08T02:22:27.252Z,21.03
2017-11-08T02:24:56.316Z,23.83
2017-11-08T02:27:30.073Z,28.67
2017-11-08T02:29:58.365Z,26.00
2017-11-08T02:32:26.651Z,22.27
2017-11-08T02:34:54.931Z,32.17
2017-11-08T02:37:23.209Z,26.33
2017-11-08T02:39:51.532Z,24.12
2017-11-08T02:42:19.815Z,23.17
2017-11-08T02:44:49.433Z,24.83
2017-11-08T02:47:18.483Z,27.07
2017-11-08T02:49:46.755Z,25.95
2017-11-08T02:52:15.064Z,23.33
2017-11-08T02:54:43.342Z,20.50
2017-11-08T02:57:11.620Z,28.00
2017-11-08T02:59:42.255Z,25.15
2017-11-08T03:02:12.380Z,27.17
2017-11-08T03:04:47.357Z,28.17
2017-11-08T03:07:15.658Z,27.03
2017-11-08T03:09:43.942Z,29.17
2017-11-08T03:12:12.225Z,25.70
2017-11-08T03:14:40.515Z,30.77
2017-11-08T03:17:08.805Z,27.60
2017-11-08T03:19:38.767Z,29.27
2017-11-08T03:22:07.058Z,30.03
2017-11-08T03:24:35.355Z,26.60
2017-11-08T03:27:03.641Z,27.23
2017-11-08T03:29:31.939Z,26.93
2017-11-08T03:32:00.237Z,30.53
2017-11-08T03:34:28.572Z,30.73
2017-11-08T03:36:56.853Z,28.98
2017-11-08T03:39:26.055Z,27.47
2017-11-08T03:41:54.327Z,25.55
2017-11-08T03:44:22.606Z,31.00
2017-11-08T03:46:50.896Z,27.60
2017-11-08T03:49:19.176Z,32.40
2017-11-08T03:51:47.456Z,36.03
2017-11-08T03:54:15.741Z,36.50
2017-11-08T03:56:44.609Z,34.77
2017-11-08T03:59:12.897Z,34.00
2017-11-08T04:01:41.993Z,29.67
2017-11-08T04:04:10.277Z,31.67
2017-11-08T04:06:38.572Z,31.67
2017-11-08T04:09:06.997Z,31.55
2017-11-08T04:11:35.292Z,39.67
2017-11-08T04:14:03.589Z,26.63
2017-11-08T04:16:31.877Z,28.93
2017-11-08T04:19:00.819Z,33.73
2017-11-08T04:21:29.117Z,32.20
2017-11-08T04:23:57.392Z,38.60
2017-11-08T04:26:25.696Z,29.10
2017-11-08T04:28:53.999Z,34.97
2017-11-08T04:31:24.263Z,34.67
2017-11-08T04:33:52.553Z,39.87
2017-11-08T04:36:20.845Z,36.75
2017-11-08T04:38:49.143Z,41.23
2017-11-08T04:41:17.429Z,41.60
2017-11-08T04:43:46.696Z,36.55
2017-11-08T04:46:14.984Z,41.97
2017-11-08T04:48:43.277Z,40.20
2017-11-08T04:51:11.608Z,38.50
2017-11-08T04:53:39.898Z,40.22
2017-11-08T04:56:08.193Z,35.80
2017-11-08T04:58:36.489Z,39.23
2017-11-08T05:01:04.782Z,40.77
2017-11-08T05:03:33.087Z,37.30
2017-11-08T05:06:01.375Z,46.28
2017-11-08T05:08:29.673Z,38.80
2017-11-08T05:10:57.960Z,41.90
2017-11-08T05:13:26.247Z,42.10
2017-11-08T05:15:54.528Z,32.45
2017-11-08T05:18:25.850Z,42.30
2017-11-08T05:20:54.138Z,35.93
2017-11-08T05:23:22.427Z,41.00
2017-11-08T05:25:50.731Z,42.50
2017-11-08T05:28:19.013Z,41.33
2017-11-08T05:30:47.305Z,51.23
2017-11-08T05:33:15.595Z,37.10
2017-11-08T05:35:43.890Z,39.28
2017-11-08T05:38:12.181Z,41.83
2017-11-08T05:40:40.476Z,39.00
2017-11-08T05:43:08.775Z,42.87
2017-11-08T05:45:37.056Z,39.43
2017-11-08T05:48:05.336Z,41.13
2017-11-08T05:50:33.621Z,42.40
2017-11-08T05:53:01.912Z,41.80
2017-11-08T05:55:30.200Z,35.77
2017-11-08T05:57:58.475Z,42.05
2017-11-08T06:00:26.778Z,43.00
2017-11-08T06:02:55.101Z,34.47
2017-11-08T06:05:23.385Z,37.87
2017-11-08T06:07:51.956Z,40.90
2017-11-08T06:10:20.248Z,37.03
2017-11-08T06:12:48.525Z,35.80
2017-11-08T06:15:16.848Z,42.33
2017-11-08T06:17:45.143Z,38.93
2017-11-08T06:20:13.454Z,37.87
2017-11-08T06:22:41.741Z,44.10
2017-11-08T06:25:10.030Z,40.73
2017-11-08T06:27:38.336Z,43.23
2017-11-08T06:30:06.677Z,39.75
2017-11-08T06:32:34.963Z,38.10
2017-11-08T06:35:03.242Z,38.03
2017-11-08T06:37:31.540Z,39.00
2017-11-08T06:39:59.824Z,35.77
2017-11-08T06:42:28.138Z,49.33
2017-11-08T06:44:56.411Z,34.63
2017-11-08T06:47:24.717Z,47.17
2017-11-08T06:49:53.966Z,57.20
2017-11-08T06:52:22.252Z,35.40
2017-11-08T06:54:50.541Z,34.10
2017-11-08T06:57:22.488Z,34.83
2017-11-08T06:59:50.768Z,38.37
2017-11-08T07:02:19.055Z,34.47
2017-11-08T07:04:47.337Z,40.47
2017-11-08T07:07:15.620Z,41.83
2017-11-08T07:09:43.909Z,43.97
2017-11-08T07:12:12.196Z,36.73
2017-11-08T07:14:40.501Z,33.20
2017-11-08T07:17:10.316Z,42.80
2017-11-08T07:19:38.602Z,33.67
2017-11-08T07:22:06.885Z,29.55
2017-11-08T07:24:35.180Z,42.53
2017-11-08T07:27:03.463Z,36.43
2017-11-08T07:29:31.750Z,38.57
2017-11-08T07:32:00.038Z,30.17
2017-11-08T07:34:28.320Z,37.00
2017-11-08T07:36:59.557Z,40.53
2017-11-08T07:39:27.855Z,34.80
2017-11-08T07:41:57.625Z,36.17
2017-11-08T07:44:25.947Z,44.28
2017-11-08T07:46:55.044Z,43.47
2017-11-08T07:49:23.347Z,35.20
2017-11-08T07:51:51.624Z,40.97
2017-11-08T07:54:19.920Z,36.05
2017-11-08T07:56:48.892Z,43.80
2017-11-08T07:59:20.036Z,36.87
2017-11-08T08:01:48.322Z,41.00
2017-11-08T08:04:16.600Z,41.90
2017-11-08T08:06:45.457Z,42.03
2017-11-08T08:09:13.739Z,37.70
2017-11-08T08:11:42.027Z,44.40
2017-11-08T08:14:10.312Z,41.55
2017-11-08T08:16:38.601Z,44.10
2017-11-08T08:19:06.884Z,40.07
2017-11-08T08:21:35.176Z,46.23
2017-11-08T08:24:03.483Z,38.80
2017-11-08T08:26:31.772Z,36.47
2017-11-08T08:29:00.993Z,41.20
2017-11-08T08:31:29.300Z,38.90
2017-11-08T08:33:57.584Z,37.10
2017-11-08T08:36:25.869Z,38.70
2017-11-08T08:38:54.167Z,36.40
2017-11-08T08:41:22.789Z,33.93
2017-11-08T08:43:51.065Z,36.93
2017-11-08T08:46:19.353Z,40.83
2017-11-08T08:48:53.947Z,29.47
2017-11-08T08:51:22.847Z,34.97
2017-11-08T08:53:51.131Z,32.80
2017-11-08T08:56:19.409Z,35.70
2017-11-08T08:58:47.692Z,32.03
2017-11-08T09:01:15.969Z,33.80
2017-11-08T09:03:44.256Z,33.73
2017-11-08T09:06:12.540Z,34.72
2017-11-08T09:08:40.856Z,31.98
2017-11-08T09:11:12.957Z,30.60
2017-11-08T09:13:41.249Z,32.93
2017-11-08T09:16:09.542Z,36.58
2017-11-08T09:18:37.842Z,34.63
2017-11-08T09:21:06.901Z,35.90
2017-11-08T09:23:35.219Z,30.70
2017-11-08T09:26:03.846Z,34.77
2017-11-08T09:28:32.117Z,39.27
2017-11-08T09:31:00.407Z,30.63
2017-11-08T09:33:28.697Z,35.30
2017-11-08T09:35:56.982Z,36.45
2017-11-08T09:38:25.254Z,35.13
2017-11-08T09:40:53.540Z,32.40
2017-11-08T09:43:22.083Z,31.37
2017-11-08T09:45:50.389Z,28.87
2017-11-08T09:48:18.681Z,33.00
2017-11-08T09:50:47.744Z,34.70
2017-11-08T09:53:16.029Z,31.90
2017-11-08T09:55:44.313Z,33.50
2017-11-08T09:58:12.608Z,34.63
2017-11-08T10:00:41.520Z,40.30
2017-11-08T10:03:09.813Z,41.37
2017-11-08T10:05:38.088Z,30.57
2017-11-08T10:08:12.744Z,35.70
2017-11-08T10:10:45.835Z,31.20
2017-11-08T10:13:14.115Z,37.20
2017-11-08T10:15:42.912Z,34.60
2017-11-08T10:18:14.127Z,33.33
2017-11-08T10:20:42.412Z,32.13
2017-11-08T10:23:10.696Z,33.73
2017-11-08T10:25:39.063Z,31.03
2017-11-08T10:28:07.351Z,32.93
2017-11-08T10:30:35.659Z,30.87
2017-11-08T10:33:03.960Z,33.40
2017-11-08T10:35:32.256Z,30.90
2017-11-08T10:38:00.553Z,32.80
2017-11-08T10:40:28.839Z,37.00
2017-11-08T10:42:57.119Z,30.30
2017-11-08T10:45:26.171Z,32.03
2017-11-08T10:47:55.398Z,33.20
2017-11-08T10:50:24.458Z,37.17
2017-11-08T10:52:54.665Z,35.03
2017-11-08T10:55:22.969Z,33.85
2017-11-08T10:57:51.262Z,37.47
2017-11-08T11:00:25.848Z,34.77
2017-11-08T11:02:57.999Z,33.60
2017-11-08T11:05:26.288Z,30.67
2017-11-08T11:07:54.581Z,33.73
2017-11-08T11:10:22.881Z,32.75
2017-11-08T11:12:51.204Z,31.20
2017-11-08T11:15:19.497Z,34.00
2017-11-08T11:17:47.797Z,28.80
2017-11-08T11:20:18.916Z,32.70
2017-11-08T11:22:47.209Z,31.00
2017-11-08T11:25:17.461Z,35.63
2017-11-08T11:27:45.772Z,31.13
2017-11-08T11:30:14.062Z,32.53
2017-11-08T11:32:44.285Z,41.40
2017-11-08T11:35:12.577Z,35.47
2017-11-08T11:37:46.417Z,33.20
2017-11-08T11:40:14.709Z,37.03
2017-11-08T11:42:43.811Z,35.60
2017-11-08T11:45:12.113Z,38.47
2017-11-08T11:47:40.413Z,37.13
2017-11-08T11:50:08.701Z,34.70
2017-11-08T11:52:36.997Z,36.03
2017-11-08T11:55:05.305Z,38.60
2017-11-08T11:57:33.610Z,34.23
2017-11-08T12:00:02.714Z,40.80
2017-11-08T12:02:31.041Z,37.23
2017-11-08T12:05:00.100Z,39.67
2017-11-08T12:07:28.404Z,39.00
2017-11-08T12:09:57.509Z,39.00
2017-11-08T12:12:25.805Z,38.70
2017-11-08T12:14:54.107Z,39.40
2017-11-08T12:17:22.389Z,44.80
2017-11-08T12:19:50.685Z,40.00
2017-11-08T12:22:18.977Z,38.47
2017-11-08T12:24:47.490Z,42.73
2017-11-08T12:27:15.769Z,34.73
2017-11-08T12:29:44.076Z,35.17
2017-11-08T12:32:12.373Z,39.73
2017-11-08T12:34:40.678Z,36.43
2017-11-08T12:37:09.841Z,38.00
2017-11-08T12:39:38.153Z,35.23
2017-11-08T12:42:12.786Z,36.03
2017-11-08T12:44:47.282Z,33.53
2017-11-08T12:47:15.585Z,42.30
2017-11-08T12:49:43.879Z,34.80
2017-11-08T12:52:12.169Z,36.30
2017-11-08T12:54:40.461Z,43.40
2017-11-08T12:57:08.756Z,41.13
2017-11-08T12:59:37.066Z,38.23
2017-11-08T13:02:05.373Z,33.77
2017-11-08T13:04:33.774Z,37.57
2017-11-08T13:07:02.081Z,35.00
2017-11-08T13:09:33.336Z,40.53
2017-11-08T13:12:01.622Z,35.40
2017-11-08T13:14:30.689Z,37.47
2017-11-08T13:16:58.989Z,40.17
2017-11-08T13:19:28.046Z,37.10
2017-11-08T13:21:56.341Z,34.60
2017-11-08T13:24:24.637Z,36.43
2017-11-08T13:26:53.048Z,42.43
2017-11-08T13:29:21.584Z,37.40
2017-11-08T13:31:49.861Z,36.65
2017-11-08T13:34:18.149Z,36.93
2017-11-08T13:36:46.440Z,40.13
2017-11-08T13:39:14.741Z,39.37
2017-11-08T13:41:43.375Z,36.43
2017-11-08T13:44:13.761Z,36.97
2017-11-08T13:46:42.066Z,42.57
2017-11-08T13:49:13.197Z,40.17
2017-11-08T13:51:41.499Z,38.03
2017-11-08T13:54:10.461Z,45.15
2017-11-08T13:56:38.770Z,45.60
2017-11-08T13:59:07.074Z,54.33
2017-11-08T14:01:35.394Z,46.77
2017-11-08T14:04:07.318Z,54.53
2017-11-08T14:06:35.619Z,46.27
2017-11-08T14:09:03.911Z,37.27
2017-11-08T14:11:32.206Z,36.33
2017-11-08T14:14:00.860Z,36.60
2017-11-08T14:16:29.918Z,37.13
2017-11-08T14:18:58.975Z,31.55
2017-11-08T14:21:27.285Z,34.53
2017-11-08T14:23:56.341Z,34.67
2017-11-08T14:26:24.625Z,36.42
2017-11-08T14:28:52.935Z,34.30
2017-11-08T14:31:21.225Z,35.80
2017-11-08T14:33:50.239Z,37.47
2017-11-08T14:36:18.918Z,48.42
2017-11-08T14:38:47.212Z,34.77
2017-11-08T14:41:15.514Z,41.23
2017-11-08T14:43:43.804Z,42.10
2017-11-08T14:46:12.105Z,37.93
2017-11-08T14:48:40.398Z,36.87
2017-11-08T14:51:09.170Z,41.13
2017-11-08T14:53:41.425Z,45.27
2017-11-08T14:56:09.705Z,45.13
2017-11-08T14:58:38.001Z,40.20
2017-11-08T15:01:06.299Z,44.50
2017-11-08T15:03:34.586Z,39.27
2017-11-08T15:06:02.899Z,38.45
2017-11-08T15:08:31.215Z,50.40
2017-11-08T15:10:59.513Z,38.10
2017-11-08T15:13:27.808Z,42.03
2017-11-08T15:15:56.105Z,43.30
2017-11-08T15:18:24.390Z,42.40
2017-11-08T15:20:52.702Z,42.83
2017-11-08T15:23:21.038Z,37.10
2017-11-08T15:25:49.346Z,38.10
2017-11-08T15:28:17.643Z,39.67
2017-11-08T15:30:45.938Z,40.33
2017-11-08T15:33:14.233Z,43.80
2017-11-08T15:35:42.538Z,38.63
2017-11-08T15:38:10.877Z,36.47
2017-11-08T15:40:39.188Z,39.88
2017-11-08T15:43:08.190Z,44.17
2017-11-08T15:45:36.493Z,40.60
2017-11-08T15:48:04.796Z,41.00
2017-11-08T15:50:33.093Z,37.63
2017-11-08T15:53:01.385Z,44.90
2017-11-08T15:55:29.694Z,44.60
2017-11-08T15:57:57.976Z,43.50
2017-11-08T16:00:26.976Z,41.40
2017-11-08T16:02:55.261Z,39.93
2017-11-08T16:05:23.562Z,44.03
2017-11-08T16:07:51.850Z,40.17
2017-11-08T16:10:20.155Z,42.67
2017-11-08T16:12:51.220Z,40.53
2017-11-08T16:15:19.513Z,49.13
2017-11-08T16:17:52.030Z,56.08
2017-11-08T16:20:21.085Z,55.87
2017-11-08T16:22:49.389Z,53.67
2017-11-08T16:25:17.690Z,43.87
2017-11-08T16:27:46.747Z,40.47
2017-11-08T16:30:15.045Z,45.53
2017-11-08T16:32:43.354Z,37.08
2017-11-08T16:35:11.671Z,42.77
2017-11-08T16:37:39.971Z,38.75
2017-11-08T16:40:08.275Z,42.27
2017-11-08T16:42:36.620Z,36.13
2017-11-08T16:45:04.913Z,39.63
2017-11-08T16:47:34.877Z,68.40
2017-11-08T16:50:03.505Z,49.10
2017-11-08T16:52:31.853Z,39.97
2017-11-08T16:55:00.162Z,45.27
2017-11-08T16:57:28.765Z,50.73
2017-11-08T16:59:57.593Z,51.43
2017-11-08T17:02:25.902Z,42.80
2017-11-08T17:04:54.206Z,47.77
2017-11-08T17:07:22.501Z,47.57
2017-11-08T17:09:50.811Z,44.43
2017-11-08T17:12:19.110Z,46.23
2017-11-08T17:14:47.410Z,74.50
2017-11-08T17:17:15.718Z,60.30
2017-11-08T17:19:44.111Z,46.67
2017-11-08T17:22:12.398Z,46.93
2017-11-08T17:24:40.690Z,46.30
2017-11-08T17:27:08.985Z,56.80
2017-11-08T17:29:37.286Z,49.40
2017-11-08T17:32:05.591Z,47.47
2017-11-08T17:34:33.893Z,48.20
2017-11-08T17:37:02.195Z,47.70
2017-11-08T17:39:30.497Z,36.17
2017-11-08T17:41:58.800Z,47.10
2017-11-08T17:44:27.113Z,47.90
2017-11-08T17:46:55.468Z,44.50
2017-11-08T17:49:23.773Z,38.93
2017-11-08T17:51:52.085Z,41.90
2017-11-08T17:54:20.396Z,39.70
2017-11-08T17:56:48.850Z,39.33
2017-11-08T17:59:17.195Z,49.07
2017-11-08T18:01:45.686Z,49.67
2017-11-08T18:04:14.011Z,46.17
2017-11-08T18:06:42.987Z,41.60
2017-11-08T18:09:11.282Z,48.20
2017-11-08T18:11:39.658Z,50.07
2017-11-08T18:14:07.957Z,47.15
2017-11-08T18:16:36.438Z,52.90
2017-11-08T18:19:06.466Z,50.70
2017-11-08T18:21:34.858Z,54.13
2017-11-08T18:24:03.269Z,48.40
2017-11-08T18:26:31.780Z,49.80
2017-11-08T18:29:01.065Z,54.63
2017-11-08T18:31:29.753Z,57.93
2017-11-08T18:33:58.242Z,63.17
2017-11-08T18:36:27.797Z,57.40
2017-11-08T18:38:57.899Z,58.10
2017-11-08T18:41:27.443Z,58.60
2017-11-08T18:43:56.930Z,60.40
2017-11-08T18:46:26.595Z,49.17
2017-11-08T18:48:57.446Z,71.73
2017-11-08T18:51:27.245Z,64.15
2017-11-08T18:53:58.510Z,60.83
2017-11-08T18:56:28.391Z,61.20
2017-11-08T18:58:58.096Z,70.47
2017-11-08T19:01:27.920Z,54.97
2017-11-08T19:03:57.625Z,68.03
2017-11-08T19:06:27.453Z,54.37
2017-11-08T19:08:57.302Z,57.75
2017-11-08T19:11:27.222Z,52.50
2017-11-08T19:13:57.054Z,70.70
2017-11-08T19:16:27.777Z,51.77
2017-11-08T19:18:57.480Z,57.97
2017-11-08T19:21:28.050Z,58.85
2017-11-08T19:23:57.854Z,57.33
2017-11-08T19:26:28.074Z,60.17
2017-11-08T19:28:58.981Z,65.73
2017-11-08T19:31:28.861Z,66.53
2017-11-08T19:33:58.753Z,52.23
2017-11-08T19:36:28.889Z,58.17
2017-11-08T19:39:00.173Z,53.57
2017-11-08T19:41:30.165Z,54.43
2017-11-08T19:44:00.070Z,57.73
2017-11-08T19:46:29.885Z,54.30
2017-11-08T19:49:01.313Z,58.13
2017-11-08T19:51:31.224Z,49.63
2017-11-08T19:54:01.127Z,58.77
2017-11-08T19:56:31.623Z,48.80
2017-11-08T19:59:01.598Z,50.87
2017-11-08T20:01:32.029Z,48.73
2017-11-08T20:04:02.375Z,52.50
2017-11-08T20:06:33.186Z,51.60
2017-11-08T20:09:03.954Z,60.23
2017-11-08T20:11:34.677Z,58.20
2017-11-08T20:14:04.593Z,45.47
2017-11-08T20:16:34.614Z,63.50
2017-11-08T20:19:04.512Z,64.83
2017-11-08T20:21:34.411Z,49.08
2017-11-08T20:24:04.410Z,55.87
2017-11-08T20:26:34.583Z,64.60
2017-11-08T20:29:05.239Z,60.87
2017-11-08T20:31:35.311Z,56.83
2017-11-08T20:34:05.231Z,48.20
2017-11-08T20:36:35.033Z,65.17
2017-11-08T20:39:05.122Z,78.43
2017-11-08T20:41:35.079Z,75.87
2017-11-08T20:44:05.041Z,66.73
2017-11-08T20:46:35.214Z,48.33
2017-11-08T20:49:06.083Z,55.03
2017-11-08T20:51:37.102Z,64.07
2017-11-08T20:54:06.933Z,67.13
2017-11-08T20:56:37.642Z,55.70
2017-11-08T20:59:08.218Z,58.73
2017-11-08T21:01:38.058Z,60.37
2017-11-08T21:04:07.889Z,61.73
2017-11-08T21:06:37.711Z,55.50
2017-11-08T21:09:07.687Z,67.87
2017-11-08T21:11:37.674Z,78.20
2017-11-08T21:14:07.575Z,62.97
2017-11-08T21:16:37.325Z,49.57
2017-11-08T21:19:07.128Z,69.73
2017-11-08T21:21:38.751Z,75.77
2017-11-08T21:24:08.525Z,57.77
2017-11-08T21:26:38.407Z,67.27
2017-11-08T21:29:08.106Z,60.40
2017-11-08T21:31:38.463Z,57.27
2017-11-08T21:34:08.221Z,64.60
2017-11-08T21:36:38.796Z,70.20
2017-11-08T21:39:09.429Z,58.20
2017-11-08T21:41:39.210Z,58.73
2017-11-08T21:44:08.634Z,55.50
2017-11-08T21:46:38.337Z,57.42
2017-11-08T21:49:07.474Z,53.00
2017-11-08T21:51:36.377Z,65.10
2017-11-08T21:54:06.496Z,72.03
2017-11-08T21:56:34.858Z,61.42
2017-11-08T21:59:03.173Z,68.23
2017-11-08T22:01:31.478Z,61.87
2017-11-08T22:03:59.860Z,67.67
2017-11-08T22:06:28.176Z,61.80
2017-11-08T22:08:56.482Z,72.47
2017-11-08T22:11:24.781Z,78.10
2017-11-08T22:13:53.073Z,82.47
2017-11-08T22:16:21.357Z,83.00
2017-11-08T22:18:49.643Z,78.70
2017-11-08T22:21:18.693Z,81.47
2017-11-08T22:23:46.960Z,81.78
2017-11-08T22:26:15.238Z,77.13
2017-11-08T22:28:43.521Z,75.40
2017-11-08T22:31:12.364Z,66.82
2017-11-08T22:33:41.411Z,77.13
2017-11-08T22:36:09.705Z,77.20
2017-11-08T22:38:37.998Z,66.60
2017-11-08T22:41:06.300Z,62.25
2017-11-08T22:43:35.359Z,65.87
2017-11-08T22:46:03.652Z,68.53
2017-11-08T22:48:31.950Z,73.70
2017-11-08T22:51:00.269Z,74.85
2017-11-08T22:53:28.558Z,63.73
2017-11-08T22:55:56.856Z,67.10
2017-11-08T22:58:25.146Z,57.70
2017-11-08T23:00:53.865Z,63.20
2017-11-08T23:03:22.177Z,78.30
2017-11-08T23:05:50.466Z,60.47
2017-11-08T23:08:18.750Z,64.40
2017-11-08T23:10:47.058Z,62.57
2017-11-08T23:13:15.352Z,55.27
2017-11-08T23:15:43.642Z,67.40
2017-11-08T23:18:11.931Z,52.83
2017-11-08T23:20:40.233Z,52.33
2017-11-08T23:23:09.281Z,50.60
2017-11-08T23:25:37.589Z,49.10
2017-11-08T23:28:06.344Z,50.40
2017-11-08T23:30:34.619Z,43.00
2017-11-08T23:33:02.887Z,41.08
2017-11-08T23:35:31.159Z,42.00
2017-11-08T23:37:59.434Z,48.67
2017-11-08T23:40:27.725Z,47.13
2017-11-08T23:42:56.026Z,44.40
2017-11-08T23:45:24.323Z,43.63
2017-11-08T23:47:53.777Z,41.87
2017-11-08T23:50:22.929Z,36.30
2017-11-08T23:52:51.977Z,42.93
2017-11-08T23:55:20.266Z,46.57
2017-11-08T23:57:48.549Z,37.90
